sensor_id;sensor_type;location;lat;lon;timestamp;P1;durP1;ratioP1;P2;durP2;ratioP2
71038;SDS011;58692;43.212;27.908;2022-09-09T00:03:46;6.68;;;2.35;;
71038;SDS011;58692;43.212;27.908;2022-09-09T00:14:13;4.47;;;2.40;;
71038;SDS011;58692;43.212;27.908;2022-09-09T00:16:49;6.22;;;2.40;;
71038;SDS011;58692;43.212;27.908;2022-09-09T00:24:46;5.45;;;2.35;;
71038;SDS011;58692;43.212;27.908;2022-09-09T00:29:58;6.90;;;2.30;;
71038;SDS011;58692;43.212;27.908;2022-09-09T00:32:39;4.38;;;2.22;;
71038;SDS011;58692;43.212;27.908;2022-09-09T00:35:14;6.90;;;2.47;;
71038;SDS011;58692;43.212;27.908;2022-09-09T00:37:43;5.77;;;2.47;;
71038;SDS011;58692;43.212;27.908;2022-09-09T00:40:22;6.90;;;2.50;;
71038;SDS011;58692;43.212;27.908;2022-09-09T00:42:48;5.88;;;2.50;;
71038;SDS011;58692;43.212;27.908;2022-09-09T00:48:11;5.05;;;2.30;;
71038;SDS011;58692;43.212;27.908;2022-09-09T00:50:51;6.43;;;2.27;;
71038;SDS011;58692;43.212;27.908;2022-09-09T00:56:12;5.63;;;2.20;;
71038;SDS011;58692;43.212;27.908;2022-09-09T00:58:42;8.38;;;2.60;;
71038;SDS011;58692;43.212;27.908;2022-09-09T01:01:16;4.95;;;2.45;;
71038;SDS011;58692;43.212;27.908;2022-09-09T01:03:46;4.67;;;2.20;;
71038;SDS011;58692;43.212;27.908;2022-09-09T01:17:14;4.97;;;2.40;;
71038;SDS011;58692;43.212;27.908;2022-09-09T01:27:44;5.40;;;2.35;;
71038;SDS011;58692;43.212;27.908;2022-09-09T01:30:14;3.95;;;2.33;;
71038;SDS011;58692;43.212;27.908;2022-09-09T01:32:43;6.28;;;2.40;;
71038;SDS011;58692;43.212;27.908;2022-09-09T01:35:11;6.33;;;2.27;;
71038;SDS011;58692;43.212;27.908;2022-09-09T01:37:44;6.75;;;2.40;;
71038;SDS011;58692;43.212;27.908;2022-09-09T01:40:10;4.53;;;2.10;;
71038;SDS011;58692;43.212;27.908;2022-09-09T01:42:36;5.13;;;2.30;;
71038;SDS011;58692;43.212;27.908;2022-09-09T01:45:02;6.70;;;2.50;;
71038;SDS011;58692;43.212;27.908;2022-09-09T01:47:28;7.05;;;2.67;;
71038;SDS011;58692;43.212;27.908;2022-09-09T01:49:53;7.33;;;2.70;;
71038;SDS011;58692;43.212;27.908;2022-09-09T01:52:18;10.23;;;3.70;;
71038;SDS011;58692;43.212;27.908;2022-09-09T01:54:44;7.47;;;3.38;;
71038;SDS011;58692;43.212;27.908;2022-09-09T02:02:17;7.68;;;3.70;;
71038;SDS011;58692;43.212;27.908;2022-09-09T02:04:58;6.70;;;3.37;;
71038;SDS011;58692;43.212;27.908;2022-09-09T02:07:39;7.18;;;3.22;;
71038;SDS011;58692;43.212;27.908;2022-09-09T02:10:11;7.85;;;3.70;;
71038;SDS011;58692;43.212;27.908;2022-09-09T02:12:49;12.05;;;3.20;;
71038;SDS011;58692;43.212;27.908;2022-09-09T02:15:22;7.22;;;3.08;;
71038;SDS011;58692;43.212;27.908;2022-09-09T02:17:54;7.63;;;3.03;;
71038;SDS011;58692;43.212;27.908;2022-09-09T02:20:22;9.38;;;3.25;;
71038;SDS011;58692;43.212;27.908;2022-09-09T02:22:51;7.47;;;3.45;;
71038;SDS011;58692;43.212;27.908;2022-09-09T02:25:19;9.48;;;3.40;;
71038;SDS011;58692;43.212;27.908;2022-09-09T02:27:47;7.95;;;3.10;;
71038;SDS011;58692;43.212;27.908;2022-09-09T02:30:15;7.37;;;3.43;;
71038;SDS011;58692;43.212;27.908;2022-09-09T02:32:42;7.18;;;3.72;;
71038;SDS011;58692;43.212;27.908;2022-09-09T02:35:09;8.73;;;3.88;;
71038;SDS011;58692;43.212;27.908;2022-09-09T02:37:39;9.10;;;3.90;;
71038;SDS011;58692;43.212;27.908;2022-09-09T02:40:09;8.57;;;3.60;;
71038;SDS011;58692;43.212;27.908;2022-09-09T02:42:44;7.27;;;3.17;;
71038;SDS011;58692;43.212;27.908;2022-09-09T02:45:12;7.72;;;2.97;;
71038;SDS011;58692;43.212;27.908;2022-09-09T02:55:37;5.70;;;2.60;;
71038;SDS011;58692;43.212;27.908;2022-09-09T02:58:08;8.32;;;3.20;;
71038;SDS011;58692;43.212;27.908;2022-09-09T03:00:37;7.47;;;3.10;;
71038;SDS011;58692;43.212;27.908;2022-09-09T03:03:04;6.70;;;2.88;;
71038;SDS011;58692;43.212;27.908;2022-09-09T03:05:31;7.95;;;2.92;;
71038;SDS011;58692;43.212;27.908;2022-09-09T03:07:57;7.70;;;2.97;;
71038;SDS011;58692;43.212;27.908;2022-09-09T03:10:22;9.80;;;3.00;;
71038;SDS011;58692;43.212;27.908;2022-09-09T03:12:48;8.70;;;3.10;;
71038;SDS011;58692;43.212;27.908;2022-09-09T03:15:14;8.18;;;2.70;;
71038;SDS011;58692;43.212;27.908;2022-09-09T03:17:40;10.37;;;3.30;;
71038;SDS011;58692;43.212;27.908;2022-09-09T03:20:06;6.68;;;2.53;;
71038;SDS011;58692;43.212;27.908;2022-09-09T03:22:32;7.93;;;2.90;;
71038;SDS011;58692;43.212;27.908;2022-09-09T03:24:58;8.20;;;3.20;;
71038;SDS011;58692;43.212;27.908;2022-09-09T03:27:23;7.53;;;3.10;;
71038;SDS011;58692;43.212;27.908;2022-09-09T03:29:49;5.90;;;2.67;;
71038;SDS011;58692;43.212;27.908;2022-09-09T03:32:16;7.57;;;3.03;;
71038;SDS011;58692;43.212;27.908;2022-09-09T03:34:43;8.43;;;3.08;;
71038;SDS011;58692;43.212;27.908;2022-09-09T03:37:08;9.98;;;3.10;;
71038;SDS011;58692;43.212;27.908;2022-09-09T03:39:34;8.43;;;2.57;;
71038;SDS011;58692;43.212;27.908;2022-09-09T03:41:59;10.47;;;2.77;;
71038;SDS011;58692;43.212;27.908;2022-09-09T03:44:29;8.43;;;2.95;;
71038;SDS011;58692;43.212;27.908;2022-09-09T03:46:55;7.55;;;3.08;;
71038;SDS011;58692;43.212;27.908;2022-09-09T03:49:21;9.90;;;2.90;;
71038;SDS011;58692;43.212;27.908;2022-09-09T03:51:47;7.63;;;3.10;;
71038;SDS011;58692;43.212;27.908;2022-09-09T03:54:13;7.37;;;3.13;;
71038;SDS011;58692;43.212;27.908;2022-09-09T03:56:38;8.90;;;3.07;;
71038;SDS011;58692;43.212;27.908;2022-09-09T03:59:06;11.63;;;2.97;;
71038;SDS011;58692;43.212;27.908;2022-09-09T04:01:33;9.48;;;3.30;;
71038;SDS011;58692;43.212;27.908;2022-09-09T04:03:59;10.68;;;3.50;;
71038;SDS011;58692;43.212;27.908;2022-09-09T04:06:27;12.93;;;3.75;;
71038;SDS011;58692;43.212;27.908;2022-09-09T04:08:54;16.97;;;7.37;;
71038;SDS011;58692;43.212;27.908;2022-09-09T04:11:20;13.55;;;5.90;;
71038;SDS011;58692;43.212;27.908;2022-09-09T04:13:46;14.13;;;5.30;;
71038;SDS011;58692;43.212;27.908;2022-09-09T04:16:12;12.67;;;4.67;;
71038;SDS011;58692;43.212;27.908;2022-09-09T04:18:38;12.88;;;4.70;;
71038;SDS011;58692;43.212;27.908;2022-09-09T04:21:04;11.83;;;5.00;;
71038;SDS011;58692;43.212;27.908;2022-09-09T04:23:32;8.98;;;4.50;;
71038;SDS011;58692;43.212;27.908;2022-09-09T04:25:59;13.82;;;5.00;;
71038;SDS011;58692;43.212;27.908;2022-09-09T04:28:28;11.60;;;4.47;;
71038;SDS011;58692;43.212;27.908;2022-09-09T04:30:55;11.93;;;4.70;;
71038;SDS011;58692;43.212;27.908;2022-09-09T04:33:23;11.50;;;4.78;;
71038;SDS011;58692;43.212;27.908;2022-09-09T04:35:51;10.75;;;4.55;;
71038;SDS011;58692;43.212;27.908;2022-09-09T04:38:18;11.52;;;4.88;;
71038;SDS011;58692;43.212;27.908;2022-09-09T04:40:46;13.53;;;4.77;;
71038;SDS011;58692;43.212;27.908;2022-09-09T04:43:12;12.38;;;4.50;;
71038;SDS011;58692;43.212;27.908;2022-09-09T04:45:39;12.60;;;4.30;;
71038;SDS011;58692;43.212;27.908;2022-09-09T04:48:05;13.90;;;4.60;;
71038;SDS011;58692;43.212;27.908;2022-09-09T04:50:31;10.00;;;4.53;;
71038;SDS011;58692;43.212;27.908;2022-09-09T04:52:59;10.18;;;4.53;;
71038;SDS011;58692;43.212;27.908;2022-09-09T04:55:26;9.63;;;4.57;;
71038;SDS011;58692;43.212;27.908;2022-09-09T04:57:52;11.65;;;4.90;;
71038;SDS011;58692;43.212;27.908;2022-09-09T05:00:17;13.60;;;5.43;;
71038;SDS011;58692;43.212;27.908;2022-09-09T05:02:43;11.30;;;4.43;;
71038;SDS011;58692;43.212;27.908;2022-09-09T05:05:09;14.73;;;4.00;;
71038;SDS011;58692;43.212;27.908;2022-09-09T05:07:36;7.72;;;2.70;;
71038;SDS011;58692;43.212;27.908;2022-09-09T05:10:02;9.40;;;2.95;;
71038;SDS011;58692;43.212;27.908;2022-09-09T05:12:30;8.60;;;2.85;;
71038;SDS011;58692;43.212;27.908;2022-09-09T05:14:56;8.73;;;3.17;;
71038;SDS011;58692;43.212;27.908;2022-09-09T05:17:21;10.43;;;3.42;;
71038;SDS011;58692;43.212;27.908;2022-09-09T05:19:47;9.33;;;3.10;;
71038;SDS011;58692;43.212;27.908;2022-09-09T05:22:17;4.90;;;2.47;;
71038;SDS011;58692;43.212;27.908;2022-09-09T05:24:45;5.90;;;2.35;;
71038;SDS011;58692;43.212;27.908;2022-09-09T05:27:11;7.63;;;2.70;;
71038;SDS011;58692;43.212;27.908;2022-09-09T05:29:37;9.30;;;2.30;;
71038;SDS011;58692;43.212;27.908;2022-09-09T05:32:03;7.57;;;2.10;;
71038;SDS011;58692;43.212;27.908;2022-09-09T05:34:29;6.13;;;2.35;;
71038;SDS011;58692;43.212;27.908;2022-09-09T05:36:55;7.30;;;2.80;;
71038;SDS011;58692;43.212;27.908;2022-09-09T05:39:20;4.27;;;2.40;;
71038;SDS011;58692;43.212;27.908;2022-09-09T05:41:46;4.25;;;2.08;;
71038;SDS011;58692;43.212;27.908;2022-09-09T05:44:11;6.23;;;2.03;;
71038;SDS011;58692;43.212;27.908;2022-09-09T05:46:38;5.00;;;2.10;;
71038;SDS011;58692;43.212;27.908;2022-09-09T05:49:04;7.23;;;2.13;;
71038;SDS011;58692;43.212;27.908;2022-09-09T05:51:30;6.75;;;2.20;;
71038;SDS011;58692;43.212;27.908;2022-09-09T05:53:56;12.27;;;3.80;;
71038;SDS011;58692;43.212;27.908;2022-09-09T05:56:26;9.50;;;2.33;;
71038;SDS011;58692;43.212;27.908;2022-09-09T05:58:52;6.50;;;2.38;;
71038;SDS011;58692;43.212;27.908;2022-09-09T06:01:20;7.40;;;2.30;;
71038;SDS011;58692;43.212;27.908;2022-09-09T06:03:48;6.18;;;2.35;;
71038;SDS011;58692;43.212;27.908;2022-09-09T06:06:16;5.10;;;2.10;;
71038;SDS011;58692;43.212;27.908;2022-09-09T06:08:45;7.35;;;2.30;;
71038;SDS011;58692;43.212;27.908;2022-09-09T06:11:13;4.90;;;2.10;;
71038;SDS011;58692;43.212;27.908;2022-09-09T06:13:41;7.20;;;2.35;;
71038;SDS011;58692;43.212;27.908;2022-09-09T06:16:08;11.35;;;2.20;;
71038;SDS011;58692;43.212;27.908;2022-09-09T06:18:36;6.60;;;2.42;;
71038;SDS011;58692;43.212;27.908;2022-09-09T06:21:04;12.43;;;2.17;;
71038;SDS011;58692;43.212;27.908;2022-09-09T06:23:32;8.47;;;2.00;;
71038;SDS011;58692;43.212;27.908;2022-09-09T06:26:01;6.05;;;2.03;;
71038;SDS011;58692;43.212;27.908;2022-09-09T06:28:33;3.67;;;2.10;;
71038;SDS011;58692;43.212;27.908;2022-09-09T06:31:00;5.05;;;2.60;;
71038;SDS011;58692;43.212;27.908;2022-09-09T06:33:30;3.75;;;2.10;;
71038;SDS011;58692;43.212;27.908;2022-09-09T06:35:57;5.50;;;2.03;;
71038;SDS011;58692;43.212;27.908;2022-09-09T06:38:23;10.02;;;2.25;;
71038;SDS011;58692;43.212;27.908;2022-09-09T06:40:57;5.95;;;2.08;;
71038;SDS011;58692;43.212;27.908;2022-09-09T06:43:25;3.83;;;2.00;;
71038;SDS011;58692;43.212;27.908;2022-09-09T06:45:59;4.57;;;2.10;;
71038;SDS011;58692;43.212;27.908;2022-09-09T06:48:27;6.05;;;2.17;;
71038;SDS011;58692;43.212;27.908;2022-09-09T06:51:03;6.25;;;2.10;;
71038;SDS011;58692;43.212;27.908;2022-09-09T06:53:31;8.57;;;2.35;;
71038;SDS011;58692;43.212;27.908;2022-09-09T06:55:59;8.00;;;2.37;;
71038;SDS011;58692;43.212;27.908;2022-09-09T06:58:40;5.30;;;2.47;;
71038;SDS011;58692;43.212;27.908;2022-09-09T07:01:09;6.63;;;2.45;;
71038;SDS011;58692;43.212;27.908;2022-09-09T07:03:37;5.88;;;2.33;;
71038;SDS011;58692;43.212;27.908;2022-09-09T07:06:04;5.57;;;2.30;;
71038;SDS011;58692;43.212;27.908;2022-09-09T07:08:30;8.70;;;2.40;;
71038;SDS011;58692;43.212;27.908;2022-09-09T07:11:06;11.90;;;2.60;;
71038;SDS011;58692;43.212;27.908;2022-09-09T07:13:33;6.20;;;1.95;;
71038;SDS011;58692;43.212;27.908;2022-09-09T07:18:41;7.30;;;2.20;;
71038;SDS011;58692;43.212;27.908;2022-09-09T07:21:09;5.95;;;2.20;;
71038;SDS011;58692;43.212;27.908;2022-09-09T07:23:37;6.18;;;2.20;;
71038;SDS011;58692;43.212;27.908;2022-09-09T07:26:07;3.63;;;1.92;;
71038;SDS011;58692;43.212;27.908;2022-09-09T07:28:34;5.38;;;2.40;;
71038;SDS011;58692;43.212;27.908;2022-09-09T07:31:01;5.43;;;2.00;;
71038;SDS011;58692;43.212;27.908;2022-09-09T07:33:28;6.70;;;2.30;;
71038;SDS011;58692;43.212;27.908;2022-09-09T07:36:02;5.68;;;2.20;;
71038;SDS011;58692;43.212;27.908;2022-09-09T07:38:30;8.68;;;2.20;;
71038;SDS011;58692;43.212;27.908;2022-09-09T07:41:05;7.47;;;2.20;;
71038;SDS011;58692;43.212;27.908;2022-09-09T07:43:47;6.00;;;2.30;;
71038;SDS011;58692;43.212;27.908;2022-09-09T07:46:25;8.68;;;2.40;;
71038;SDS011;58692;43.212;27.908;2022-09-09T07:48:52;6.20;;;2.10;;
71038;SDS011;58692;43.212;27.908;2022-09-09T07:51:22;5.30;;;2.20;;
71038;SDS011;58692;43.212;27.908;2022-09-09T07:53:53;3.67;;;2.00;;
71038;SDS011;58692;43.212;27.908;2022-09-09T07:56:22;5.45;;;2.17;;
71038;SDS011;58692;43.212;27.908;2022-09-09T07:58:49;4.13;;;2.08;;
71038;SDS011;58692;43.212;27.908;2022-09-09T08:01:19;4.15;;;2.00;;
71038;SDS011;58692;43.212;27.908;2022-09-09T08:03:51;4.72;;;2.17;;
71038;SDS011;58692;43.212;27.908;2022-09-09T08:06:19;17.50;;;2.30;;
71038;SDS011;58692;43.212;27.908;2022-09-09T08:08:45;4.30;;;1.92;;
71038;SDS011;58692;43.212;27.908;2022-09-09T08:11:15;6.07;;;2.30;;
71038;SDS011;58692;43.212;27.908;2022-09-09T08:13:41;4.35;;;2.08;;
71038;SDS011;58692;43.212;27.908;2022-09-09T08:16:10;5.95;;;1.90;;
71038;SDS011;58692;43.212;27.908;2022-09-09T08:18:53;5.00;;;2.08;;
71038;SDS011;58692;43.212;27.908;2022-09-09T08:24:10;4.03;;;1.90;;
71038;SDS011;58692;43.212;27.908;2022-09-09T08:27:28;9.27;;;2.28;;
71038;SDS011;58692;43.212;27.908;2022-09-09T08:30:38;7.43;;;1.85;;
71038;SDS011;58692;43.212;27.908;2022-09-09T08:33:12;6.23;;;2.03;;
71038;SDS011;58692;43.212;27.908;2022-09-09T08:36:23;7.13;;;2.42;;
71038;SDS011;58692;43.212;27.908;2022-09-09T08:38:52;4.65;;;2.13;;
71038;SDS011;58692;43.212;27.908;2022-09-09T08:44:14;3.22;;;2.00;;
71038;SDS011;58692;43.212;27.908;2022-09-09T08:52:28;5.15;;;2.13;;
71038;SDS011;58692;43.212;27.908;2022-09-09T08:54:56;5.10;;;2.10;;
71038;SDS011;58692;43.212;27.908;2022-09-09T08:57:28;6.13;;;2.33;;
71038;SDS011;58692;43.212;27.908;2022-09-09T08:59:56;5.87;;;2.00;;
71038;SDS011;58692;43.212;27.908;2022-09-09T09:02:26;5.68;;;2.25;;
71038;SDS011;58692;43.212;27.908;2022-09-09T09:05:16;7.22;;;2.25;;
71038;SDS011;58692;43.212;27.908;2022-09-09T09:10:49;6.85;;;2.22;;
71038;SDS011;58692;43.212;27.908;2022-09-09T09:16:15;4.35;;;1.77;;
71038;SDS011;58692;43.212;27.908;2022-09-09T09:18:57;4.38;;;2.20;;
71038;SDS011;58692;43.212;27.908;2022-09-09T09:26:40;6.38;;;2.35;;
71038;SDS011;58692;43.212;27.908;2022-09-09T09:29:11;4.35;;;2.05;;
71038;SDS011;58692;43.212;27.908;2022-09-09T09:31:41;4.43;;;2.20;;
71038;SDS011;58692;43.212;27.908;2022-09-09T09:34:16;4.93;;;2.07;;
71038;SDS011;58692;43.212;27.908;2022-09-09T09:36:52;3.50;;;1.95;;
71038;SDS011;58692;43.212;27.908;2022-09-09T09:39:24;5.43;;;2.20;;
71038;SDS011;58692;43.212;27.908;2022-09-09T09:41:52;6.88;;;2.20;;
71038;SDS011;58692;43.212;27.908;2022-09-09T09:44:27;8.25;;;2.30;;
71038;SDS011;58692;43.212;27.908;2022-09-09T09:49:38;6.13;;;2.10;;
71038;SDS011;58692;43.212;27.908;2022-09-09T09:52:12;6.53;;;2.10;;
71038;SDS011;58692;43.212;27.908;2022-09-09T09:54:49;5.82;;;2.08;;
71038;SDS011;58692;43.212;27.908;2022-09-09T09:57:17;5.88;;;2.20;;
71038;SDS011;58692;43.212;27.908;2022-09-09T10:05:52;6.32;;;2.13;;
71038;SDS011;58692;43.212;27.908;2022-09-09T10:08:18;6.03;;;2.40;;
71038;SDS011;58692;43.212;27.908;2022-09-09T10:11:04;4.38;;;2.20;;
71038;SDS011;58692;43.212;27.908;2022-09-09T10:19:21;5.00;;;2.20;;
71038;SDS011;58692;43.212;27.908;2022-09-09T10:27:51;6.07;;;2.17;;
71038;SDS011;58692;43.212;27.908;2022-09-09T10:38:17;4.45;;;2.60;;
71038;SDS011;58692;43.212;27.908;2022-09-09T10:40:59;6.68;;;2.63;;
71038;SDS011;58692;43.212;27.908;2022-09-09T10:49:12;4.40;;;2.20;;
71038;SDS011;58692;43.212;27.908;2022-09-09T10:57:25;6.85;;;1.80;;
71038;SDS011;58692;43.212;27.908;2022-09-09T11:00:04;5.70;;;2.22;;
71038;SDS011;58692;43.212;27.908;2022-09-09T11:02:56;6.80;;;2.50;;
71038;SDS011;58692;43.212;27.908;2022-09-09T11:07:55;5.80;;;2.15;;
71038;SDS011;58692;43.212;27.908;2022-09-09T11:13:10;5.07;;;2.30;;
71038;SDS011;58692;43.212;27.908;2022-09-09T11:15:43;5.53;;;2.17;;
71038;SDS011;58692;43.212;27.908;2022-09-09T11:18:17;7.53;;;2.10;;
71038;SDS011;58692;43.212;27.908;2022-09-09T11:20:47;3.70;;;2.10;;
71038;SDS011;58692;43.212;27.908;2022-09-09T11:23:22;4.20;;;2.03;;
71038;SDS011;58692;43.212;27.908;2022-09-09T11:25:55;4.72;;;2.03;;
71038;SDS011;58692;43.212;27.908;2022-09-09T11:33:23;5.83;;;2.23;;
71038;SDS011;58692;43.212;27.908;2022-09-09T11:38:48;7.18;;;2.40;;
71038;SDS011;58692;43.212;27.908;2022-09-09T11:41:17;4.70;;;2.00;;
71038;SDS011;58692;43.212;27.908;2022-09-09T11:43:47;4.55;;;2.20;;
71038;SDS011;58692;43.212;27.908;2022-09-09T11:46:17;6.32;;;2.30;;
71038;SDS011;58692;43.212;27.908;2022-09-09T11:48:57;4.93;;;2.47;;
71038;SDS011;58692;43.212;27.908;2022-09-09T11:51:27;7.43;;;2.22;;
71038;SDS011;58692;43.212;27.908;2022-09-09T11:56:24;6.38;;;2.60;;
71038;SDS011;58692;43.212;27.908;2022-09-09T11:59:00;7.25;;;2.50;;
71038;SDS011;58692;43.212;27.908;2022-09-09T12:01:29;5.43;;;2.17;;
71038;SDS011;58692;43.212;27.908;2022-09-09T12:04:05;3.47;;;2.17;;
71038;SDS011;58692;43.212;27.908;2022-09-09T12:12:26;4.65;;;2.55;;
71038;SDS011;58692;43.212;27.908;2022-09-09T12:15:02;7.23;;;2.47;;
71038;SDS011;58692;43.212;27.908;2022-09-09T12:17:53;5.18;;;1.90;;
71038;SDS011;58692;43.212;27.908;2022-09-09T12:28:16;5.18;;;2.00;;
71038;SDS011;58692;43.212;27.908;2022-09-09T12:33:48;5.53;;;2.03;;
71038;SDS011;58692;43.212;27.908;2022-09-09T12:36:20;5.30;;;1.83;;
71038;SDS011;58692;43.212;27.908;2022-09-09T12:41:56;5.85;;;2.10;;
71038;SDS011;58692;43.212;27.908;2022-09-09T12:44:23;6.47;;;2.10;;
71038;SDS011;58692;43.212;27.908;2022-09-09T12:46:50;5.28;;;1.95;;
71038;SDS011;58692;43.212;27.908;2022-09-09T12:49:24;3.22;;;1.70;;
71038;SDS011;58692;43.212;27.908;2022-09-09T12:51:51;4.68;;;1.90;;
71038;SDS011;58692;43.212;27.908;2022-09-09T12:54:17;6.60;;;2.13;;
71038;SDS011;58692;43.212;27.908;2022-09-09T12:56:46;5.20;;;2.00;;
71038;SDS011;58692;43.212;27.908;2022-09-09T13:02:10;4.63;;;1.88;;
71038;SDS011;58692;43.212;27.908;2022-09-09T13:05:13;4.88;;;2.13;;
71038;SDS011;58692;43.212;27.908;2022-09-09T13:07:47;5.57;;;1.80;;
71038;SDS011;58692;43.212;27.908;2022-09-09T13:10:14;6.50;;;2.10;;
71038;SDS011;58692;43.212;27.908;2022-09-09T13:12:45;3.85;;;2.00;;
71038;SDS011;58692;43.212;27.908;2022-09-09T13:15:14;5.13;;;2.20;;
71038;SDS011;58692;43.212;27.908;2022-09-09T13:17:49;6.93;;;2.38;;
71038;SDS011;58692;43.212;27.908;2022-09-09T13:20:18;5.80;;;2.20;;
71038;SDS011;58692;43.212;27.908;2022-09-09T13:22:44;3.67;;;1.90;;
71038;SDS011;58692;43.212;27.908;2022-09-09T13:27:50;7.57;;;2.33;;
71038;SDS011;58692;43.212;27.908;2022-09-09T13:30:20;7.72;;;2.35;;
71038;SDS011;58692;43.212;27.908;2022-09-09T13:35:30;5.40;;;2.30;;
71038;SDS011;58692;43.212;27.908;2022-09-09T13:37:58;7.38;;;2.60;;
71038;SDS011;58692;43.212;27.908;2022-09-09T13:40:25;5.47;;;2.40;;
71038;SDS011;58692;43.212;27.908;2022-09-09T13:42:51;5.95;;;2.83;;
71038;SDS011;58692;43.212;27.908;2022-09-09T13:45:22;6.75;;;3.00;;
71038;SDS011;58692;43.212;27.908;2022-09-09T13:47:52;6.97;;;3.13;;
71038;SDS011;58692;43.212;27.908;2022-09-09T13:50:22;8.15;;;3.22;;
71038;SDS011;58692;43.212;27.908;2022-09-09T13:52:54;6.43;;;3.50;;
71038;SDS011;58692;43.212;27.908;2022-09-09T13:55:23;6.57;;;3.50;;
71038;SDS011;58692;43.212;27.908;2022-09-09T13:57:52;7.28;;;3.45;;
71038;SDS011;58692;43.212;27.908;2022-09-09T14:00:19;6.90;;;3.40;;
71038;SDS011;58692;43.212;27.908;2022-09-09T14:02:46;9.05;;;4.10;;
71038;SDS011;58692;43.212;27.908;2022-09-09T14:05:12;8.07;;;3.72;;
71038;SDS011;58692;43.212;27.908;2022-09-09T14:07:39;7.05;;;4.05;;
71038;SDS011;58692;43.212;27.908;2022-09-09T14:10:06;6.03;;;3.22;;
71038;SDS011;58692;43.212;27.908;2022-09-09T14:12:32;7.30;;;3.97;;
71038;SDS011;58692;43.212;27.908;2022-09-09T14:14:58;6.15;;;4.00;;
71038;SDS011;58692;43.212;27.908;2022-09-09T14:17:25;8.00;;;3.95;;
71038;SDS011;58692;43.212;27.908;2022-09-09T14:19:54;6.17;;;3.83;;
71038;SDS011;58692;43.212;27.908;2022-09-09T14:22:21;8.95;;;4.22;;
71038;SDS011;58692;43.212;27.908;2022-09-09T14:24:47;7.30;;;3.65;;
71038;SDS011;58692;43.212;27.908;2022-09-09T14:27:12;6.80;;;3.60;;
71038;SDS011;58692;43.212;27.908;2022-09-09T14:29:38;8.02;;;4.10;;
71038;SDS011;58692;43.212;27.908;2022-09-09T14:32:04;9.20;;;4.07;;
71038;SDS011;58692;43.212;27.908;2022-09-09T14:34:29;6.60;;;3.70;;
71038;SDS011;58692;43.212;27.908;2022-09-09T14:36:57;7.03;;;3.78;;
71038;SDS011;58692;43.212;27.908;2022-09-09T14:39:23;8.03;;;3.50;;
71038;SDS011;58692;43.212;27.908;2022-09-09T14:41:48;5.35;;;3.47;;
71038;SDS011;58692;43.212;27.908;2022-09-09T14:44:14;6.03;;;3.40;;
71038;SDS011;58692;43.212;27.908;2022-09-09T14:46:41;8.38;;;3.72;;
71038;SDS011;58692;43.212;27.908;2022-09-09T14:49:08;8.05;;;3.70;;
71038;SDS011;58692;43.212;27.908;2022-09-09T14:51:35;6.93;;;3.63;;
71038;SDS011;58692;43.212;27.908;2022-09-09T14:54:02;8.70;;;3.60;;
71038;SDS011;58692;43.212;27.908;2022-09-09T14:56:30;8.02;;;3.50;;
71038;SDS011;58692;43.212;27.908;2022-09-09T14:58:59;6.32;;;3.72;;
71038;SDS011;58692;43.212;27.908;2022-09-09T15:01:26;7.50;;;3.40;;
71038;SDS011;58692;43.212;27.908;2022-09-09T15:03:56;5.97;;;3.67;;
71038;SDS011;58692;43.212;27.908;2022-09-09T15:06:23;6.00;;;3.33;;
71038;SDS011;58692;43.212;27.908;2022-09-09T15:08:51;9.05;;;4.00;;
71038;SDS011;58692;43.212;27.908;2022-09-09T15:11:18;7.95;;;3.70;;
71038;SDS011;58692;43.212;27.908;2022-09-09T15:13:45;7.05;;;3.75;;
71038;SDS011;58692;43.212;27.908;2022-09-09T15:16:14;7.20;;;3.90;;
71038;SDS011;58692;43.212;27.908;2022-09-09T15:18:41;6.30;;;3.40;;
71038;SDS011;58692;43.212;27.908;2022-09-09T15:21:10;6.22;;;3.53;;
71038;SDS011;58692;43.212;27.908;2022-09-09T15:23:37;7.57;;;3.38;;
71038;SDS011;58692;43.212;27.908;2022-09-09T15:26:03;6.28;;;3.45;;
71038;SDS011;58692;43.212;27.908;2022-09-09T15:28:30;6.40;;;3.20;;
71038;SDS011;58692;43.212;27.908;2022-09-09T15:30:57;7.25;;;3.35;;
71038;SDS011;58692;43.212;27.908;2022-09-09T15:33:24;6.45;;;3.50;;
71038;SDS011;58692;43.212;27.908;2022-09-09T15:35:50;10.57;;;3.50;;
71038;SDS011;58692;43.212;27.908;2022-09-09T15:38:16;7.78;;;3.55;;
71038;SDS011;58692;43.212;27.908;2022-09-09T15:40:42;6.47;;;3.40;;
71038;SDS011;58692;43.212;27.908;2022-09-09T15:43:08;7.37;;;3.80;;
71038;SDS011;58692;43.212;27.908;2022-09-09T15:45:35;8.15;;;4.10;;
71038;SDS011;58692;43.212;27.908;2022-09-09T15:48:02;7.07;;;3.72;;
71038;SDS011;58692;43.212;27.908;2022-09-09T15:50:28;7.50;;;3.50;;
71038;SDS011;58692;43.212;27.908;2022-09-09T15:52:56;9.32;;;3.95;;
71038;SDS011;58692;43.212;27.908;2022-09-09T15:55:22;7.17;;;3.83;;
71038;SDS011;58692;43.212;27.908;2022-09-09T15:57:49;10.18;;;4.30;;
71038;SDS011;58692;43.212;27.908;2022-09-09T16:00:17;8.18;;;3.70;;
71038;SDS011;58692;43.212;27.908;2022-09-09T16:02:43;8.82;;;3.83;;
71038;SDS011;58692;43.212;27.908;2022-09-09T16:05:08;8.27;;;3.60;;
71038;SDS011;58692;43.212;27.908;2022-09-09T16:07:34;8.15;;;3.95;;
71038;SDS011;58692;43.212;27.908;2022-09-09T16:10:00;8.97;;;3.50;;
71038;SDS011;58692;43.212;27.908;2022-09-09T16:12:26;8.57;;;3.90;;
71038;SDS011;58692;43.212;27.908;2022-09-09T16:14:52;8.43;;;3.60;;
71038;SDS011;58692;43.212;27.908;2022-09-09T16:17:17;7.07;;;3.47;;
71038;SDS011;58692;43.212;27.908;2022-09-09T16:19:45;7.60;;;3.93;;
71038;SDS011;58692;43.212;27.908;2022-09-09T16:22:11;6.95;;;3.80;;
71038;SDS011;58692;43.212;27.908;2022-09-09T16:24:36;8.33;;;3.87;;
71038;SDS011;58692;43.212;27.908;2022-09-09T16:27:02;8.15;;;4.00;;
71038;SDS011;58692;43.212;27.908;2022-09-09T16:29:27;8.70;;;4.13;;
71038;SDS011;58692;43.212;27.908;2022-09-09T16:31:53;7.38;;;3.80;;
71038;SDS011;58692;43.212;27.908;2022-09-09T16:34:20;10.27;;;4.28;;
71038;SDS011;58692;43.212;27.908;2022-09-09T16:36:47;7.57;;;3.70;;
71038;SDS011;58692;43.212;27.908;2022-09-09T16:39:15;8.10;;;3.97;;
71038;SDS011;58692;43.212;27.908;2022-09-09T16:41:42;7.20;;;4.13;;
71038;SDS011;58692;43.212;27.908;2022-09-09T16:44:10;8.55;;;3.70;;
71038;SDS011;58692;43.212;27.908;2022-09-09T16:46:41;9.20;;;4.30;;
71038;SDS011;58692;43.212;27.908;2022-09-09T16:49:18;6.63;;;3.60;;
71038;SDS011;58692;43.212;27.908;2022-09-09T16:51:44;9.70;;;3.90;;
71038;SDS011;58692;43.212;27.908;2022-09-09T16:54:13;8.13;;;4.05;;
71038;SDS011;58692;43.212;27.908;2022-09-09T16:56:40;11.10;;;4.07;;
71038;SDS011;58692;43.212;27.908;2022-09-09T16:59:12;7.47;;;3.85;;
71038;SDS011;58692;43.212;27.908;2022-09-09T17:01:40;8.20;;;3.95;;
71038;SDS011;58692;43.212;27.908;2022-09-09T17:04:07;8.57;;;4.32;;
71038;SDS011;58692;43.212;27.908;2022-09-09T17:06:35;8.43;;;4.20;;
71038;SDS011;58692;43.212;27.908;2022-09-09T17:09:04;8.47;;;4.20;;
71038;SDS011;58692;43.212;27.908;2022-09-09T17:11:32;10.80;;;3.83;;
71038;SDS011;58692;43.212;27.908;2022-09-09T17:13:58;8.48;;;3.97;;
71038;SDS011;58692;43.212;27.908;2022-09-09T17:16:25;6.75;;;3.97;;
71038;SDS011;58692;43.212;27.908;2022-09-09T17:18:53;10.32;;;3.95;;
71038;SDS011;58692;43.212;27.908;2022-09-09T17:21:22;7.03;;;4.40;;
71038;SDS011;58692;43.212;27.908;2022-09-09T17:23:50;7.78;;;4.07;;
71038;SDS011;58692;43.212;27.908;2022-09-09T17:26:17;10.27;;;4.20;;
71038;SDS011;58692;43.212;27.908;2022-09-09T17:28:44;8.32;;;4.03;;
71038;SDS011;58692;43.212;27.908;2022-09-09T17:31:11;8.38;;;3.90;;